Time;durP1;ratioP1;P1;durP2;ratioP2;P2;SDS_P1;SDS_P2;PMS_P1;PMS_P2;Temp;Humidity;BMP_temperature;BMP_pressure;BME280_temperature;BME280_humidity;BME280_pressure;Samples;Min_cycle;Max_cycle;Signal;HPM_P1;HPM_P2
2023/01/30 00:00:28;;;;;;;1.90;1.80;;;6.70;99.90;;;;;;5057064;28;20037;-86
2023/01/30 00:02:54;;;;;;;2.30;1.70;;;6.70;99.90;;;;;;5057290;28;20037;-86
2023/01/30 00:05:19;;;;;;;0.90;0.88;;;6.50;99.90;;;;;;5057465;28;20044;-86
2023/01/30 00:07:46;;;;;;;0.85;0.80;;;6.80;99.90;;;;;;5057268;28;20044;-86
2023/01/30 00:10:12;;;;;;;0.60;0.60;;;6.80;99.90;;;;;;5057511;28;20058;-86
2023/01/30 00:12:37;;;;;;;1.98;0.75;;;6.80;99.90;;;;;;5057387;28;20069;-85
2023/01/30 00:15:03;;;;;;;1.30;1.20;;;6.90;99.90;;;;;;5056972;28;20130;-86
2023/01/30 00:17:29;;;;;;;4.65;1.35;;;6.90;99.90;;;;;;5056935;28;20487;-86
2023/01/30 00:19:54;;;;;;;0.93;0.93;;;7.00;99.90;;;;;;5057169;28;20123;-85
2023/01/30 00:22:20;;;;;;;2.60;1.63;;;7.00;99.90;;;;;;5056889;28;20073;-86
2023/01/30 00:24:46;;;;;;;4.47;1.10;;;7.00;99.90;;;;;;5057091;28;20076;-86
2023/01/30 00:27:11;;;;;;;0.10;0.10;;;7.00;99.90;;;;;;5056823;28;20449;-86
2023/01/30 00:29:37;;;;;;;0.30;0.20;;;7.00;99.90;;;;;;5056693;28;20049;-86
2023/01/30 00:32:02;;;;;;;2.00;1.90;;;7.00;99.90;;;;;;5056969;28;20044;-86
2023/01/30 00:34:28;;;;;;;3.22;1.77;;;7.00;99.90;;;;;;5056417;28;20033;-86
2023/01/30 00:36:53;;;;;;;2.70;1.10;;;7.00;99.90;;;;;;5056831;28;20088;-86
2023/01/30 00:39:19;;;;;;;0.63;0.63;;;7.10;99.90;;;;;;5056435;28;20090;-86
2023/01/30 00:47:15;;;;;;;0.22;0.22;;;7.10;99.90;;;;;;5055687;28;20482;-86
2023/01/30 00:49:41;;;;;;;1.33;1.23;;;7.10;99.90;;;;;;5056085;28;20045;-86
2023/01/30 00:52:06;;;;;;;0.05;0.05;;;7.10;99.90;;;;;;5056148;28;20037;-86
2023/01/30 00:54:32;;;;;;;1.70;1.50;;;7.10;99.90;;;;;;5055991;28;20045;-86
2023/01/30 00:56:58;;;;;;;0.13;0.13;;;7.00;99.90;;;;;;5056588;28;20068;-86
2023/01/30 00:59:24;;;;;;;0.47;0.43;;;7.00;99.90;;;;;;5056484;28;20379;-87
2023/01/30 01:01:50;;;;;;;4.57;2.58;;;6.90;99.90;;;;;;5054789;28;20044;-87
2023/01/30 01:04:16;;;;;;;1.65;0.95;;;6.80;99.90;;;;;;5056197;28;20052;-87
2023/01/30 01:06:41;;;;;;;0.30;0.22;;;6.70;99.90;;;;;;5056105;28;20064;-87
2023/01/30 01:09:07;;;;;;;3.13;1.95;;;6.70;99.90;;;;;;5055703;28;20086;-87
2023/01/30 01:11:33;;;;;;;0.80;0.80;;;6.60;99.90;;;;;;5055900;28;20052;-86
2023/01/30 01:14:00;;;;;;;0.63;0.63;;;6.50;99.90;;;;;;5055456;28;20053;-87
2023/01/30 01:16:27;;;;;;;0.22;0.22;;;6.50;99.90;;;;;;5056061;28;20071;-87
2023/01/30 01:18:53;;;;;;;1.45;1.35;;;6.50;99.90;;;;;;5056049;28;20041;-87
2023/01/30 01:21:19;;;;;;;10.68;0.98;;;6.50;99.90;;;;;;5055710;28;20178;-87
2023/01/30 01:23:52;;;;;;;0.50;0.50;;;6.50;99.90;;;;;;5055669;28;20048;-87
2023/01/30 01:26:19;;;;;;;2.85;1.35;;;6.50;99.90;;;;;;5055793;28;20073;-88
2023/01/30 01:28:44;;;;;;;4.28;0.95;;;6.50;99.90;;;;;;5055823;28;20045;-87
2023/01/30 01:31:12;;;;;;;0.65;0.52;;;6.50;99.90;;;;;;5055962;28;20136;-88
2023/01/30 01:33:38;;;;;;;0.20;0.20;;;6.40;99.90;;;;;;5055886;28;20051;-87
2023/01/30 01:36:05;;;;;;;0.03;0.03;;;6.40;99.90;;;;;;5054445;28;20119;-88
2023/01/30 01:38:30;;;;;;;0.65;0.65;;;6.40;99.90;;;;;;5055624;28;20041;-87
2023/01/30 01:41:04;;;;;;;0.00;0.00;;;6.40;99.90;;;;;;5055752;28;20041;-88
2023/01/30 01:43:33;;;;;;;0.17;0.10;;;6.50;99.90;;;;;;5055323;28;20513;-87
2023/01/30 01:46:08;;;;;;;0.38;0.32;;;6.40;99.90;;;;;;5054124;28;20098;-87
2023/01/30 01:48:41;;;;;;;0.30;0.30;;;6.50;99.90;;;;;;5054664;28;20107;-87
2023/01/30 01:51:25;;;;;;;12.25;0.90;;;6.50;99.90;;;;;;5054055;28;20052;-88
2023/01/30 01:54:08;;;;;;;0.10;0.10;;;6.50;99.90;;;;;;5054910;28;20071;-87
2023/01/30 01:56:36;;;;;;;0.65;0.30;;;6.50;99.90;;;;;;5054023;28;20371;-87
2023/01/30 01:59:11;;;;;;;0.00;0.00;;;6.50;99.90;;;;;;5053416;28;20506;-87
2023/01/30 02:01:37;;;;;;;0.17;0.17;;;6.50;99.90;;;;;;5055193;28;20048;-87
2023/01/30 02:04:08;;;;;;;0.10;0.10;;;6.50;99.90;;;;;;5055152;28;20155;-88
2023/01/30 02:06:36;;;;;;;0.00;0.00;;;6.50;99.90;;;;;;5053682;28;20061;-88
2023/01/30 02:09:05;;;;;;;1.00;0.63;;;6.60;99.90;;;;;;5053969;28;20048;-87
2023/01/30 02:11:41;;;;;;;0.10;0.10;;;6.60;99.90;;;;;;5055102;28;20045;-87
2023/01/30 02:14:07;;;;;;;0.00;0.00;;;6.60;99.90;;;;;;5053780;28;20045;-87
2023/01/30 02:16:35;;;;;;;1.58;1.48;;;6.60;99.90;;;;;;5055212;28;20051;-87
2023/01/30 02:19:01;;;;;;;0.35;0.20;;;6.60;99.90;;;;;;5055096;28;20040;-87
2023/01/30 02:21:41;;;;;;;0.13;0.13;;;6.60;99.90;;;;;;5055650;28;20040;-87
2023/01/30 02:24:17;;;;;;;0.40;0.38;;;6.70;99.90;;;;;;5055288;28;20033;-88
2023/01/30 02:27:07;;;;;;;0.00;0.00;;;6.70;99.90;;;;;;5055118;28;20049;-87
2023/01/30 02:29:57;;;;;;;0.00;0.00;;;6.70;99.90;;;;;;5054853;28;20088;-87
2023/01/30 02:32:47;;;;;;;6.88;0.90;;;6.70;99.90;;;;;;5053500;28;20045;-88
2023/01/30 02:35:15;;;;;;;0.10;0.10;;;6.70;99.90;;;;;;5054880;28;20495;-88
2023/01/30 02:38:15;;;;;;;0.10;0.10;;;6.70;99.90;;;;;;5054470;28;20048;-88
2023/01/30 02:41:17;;;;;;;0.47;0.47;;;6.70;99.90;;;;;;5047639;28;20498;-88
2023/01/30 02:43:58;;;;;;;0.25;0.25;;;6.70;99.90;;;;;;5054044;28;20076;-88
2023/01/30 02:46:31;;;;;;;0.30;0.30;;;6.70;99.90;;;;;;5053020;28;20053;-88
2023/01/30 02:49:01;;;;;;;0.28;0.28;;;6.80;99.90;;;;;;5053052;28;20049;-87
2023/01/30 02:51:30;;;;;;;1.95;0.88;;;6.80;99.90;;;;;;5054658;28;20037;-88
2023/01/30 02:53:57;;;;;;;0.38;0.28;;;6.80;99.90;;;;;;5052912;28;20052;-87
2023/01/30 02:56:23;;;;;;;0.00;0.00;;;6.80;99.90;;;;;;5054405;28;20494;-88
2023/01/30 02:58:54;;;;;;;4.30;1.35;;;6.80;99.90;;;;;;5053023;28;20128;-88
2023/01/30 03:02:04;;;;;;;1.30;0.63;;;6.80;99.90;;;;;;5054865;28;20102;-87
2023/01/30 03:04:48;;;;;;;1.55;0.85;;;6.80;99.90;;;;;;5049060;28;20122;-87
2023/01/30 03:07:25;;;;;;;0.25;0.25;;;6.80;99.90;;;;;;5058876;28;20045;-88
2023/01/30 03:10:09;;;;;;;;;;;6.80;99.90;;;;;;5056727;28;20072;-88
2023/01/30 03:12:34;;;;;;;0.00;0.00;;;6.80;99.90;;;;;;5058397;28;19927;-88
2023/01/30 03:15:34;;;;;;;0.20;0.20;;;6.80;99.90;;;;;;5058304;28;20049;-88
2023/01/30 03:18:01;;;;;;;22.58;1.88;;;6.80;99.90;;;;;;5035749;28;20049;-88
2023/01/30 03:20:26;;;;;;;5.72;1.00;;;6.80;99.90;;;;;;5036812;28;20088;-88
2023/01/30 03:22:53;;;;;;;0.10;0.10;;;6.80;99.90;;;;;;5045526;28;20443;-89
2023/01/30 03:25:22;;;;;;;0.30;0.30;;;6.80;99.90;;;;;;5058116;28;20041;-89
2023/01/30 03:27:50;;;;;;;2.83;0.50;;;6.70;99.90;;;;;;5058859;28;20123;-88
2023/01/30 03:30:16;;;;;;;0.10;0.10;;;6.80;99.90;;;;;;5058665;28;20098;-88
2023/01/30 03:32:42;;;;;;;0.17;0.17;;;6.70;99.90;;;;;;5058612;28;20041;-88
2023/01/30 03:35:08;;;;;;;0.70;0.63;;;6.70;99.90;;;;;;5058159;28;20041;-88
2023/01/30 03:37:34;;;;;;;0.63;0.63;;;6.60;99.90;;;;;;5058396;28;20091;-88
2023/01/30 03:39:59;;;;;;;0.52;0.45;;;6.50;99.90;;;;;;5058010;28;20522;-88
2023/01/30 03:42:25;;;;;;;1.10;0.77;;;6.60;99.90;;;;;;5057227;28;20045;-88
2023/01/30 03:44:51;;;;;;;0.98;0.80;;;6.60;99.90;;;;;;5058298;28;20041;-89
2023/01/30 03:47:16;;;;;;;0.28;0.25;;;6.50;99.90;;;;;;5056215;28;20051;-88
2023/01/30 03:49:42;;;;;;;0.17;0.17;;;6.40;99.90;;;;;;5058019;28;20056;-89
2023/01/30 03:52:07;;;;;;;0.10;0.10;;;6.30;99.90;;;;;;5057919;28;20451;-88
2023/01/30 03:54:33;;;;;;;0.10;0.10;;;6.20;99.90;;;;;;5057853;28;20056;-88
2023/01/30 03:56:59;;;;;;;0.20;0.20;;;6.10;99.90;;;;;;5056807;28;20045;-88
2023/01/30 03:59:24;;;;;;;0.00;0.00;;;6.10;99.90;;;;;;5057656;28;20056;-88
2023/01/30 04:01:50;;;;;;;0.20;0.20;;;6.00;99.90;;;;;;5057839;28;20048;-88
2023/01/30 04:04:15;;;;;;;0.73;0.70;;;5.80;99.90;;;;;;5057694;28;20398;-88
2023/01/30 04:06:41;;;;;;;0.00;0.00;;;5.70;99.90;;;;;;5057554;28;20049;-88
2023/01/30 04:09:06;;;;;;;0.00;0.00;;;5.60;99.90;;;;;;5057750;28;20033;-89
2023/01/30 04:11:32;;;;;;;1.08;0.90;;;5.50;99.90;;;;;;5057655;28;20490;-89
2023/01/30 04:13:57;;;;;;;0.25;0.15;;;5.40;99.90;;;;;;5057587;28;20131;-88
2023/01/30 04:16:25;;;;;;;0.13;0.13;;;5.30;99.90;;;;;;5057594;28;20033;-88
2023/01/30 04:18:50;;;;;;;0.50;0.50;;;5.50;99.90;;;;;;5057582;28;20061;-89
2023/01/30 04:21:16;;;;;;;0.95;0.95;;;5.60;99.90;;;;;;5056501;28;20045;-88
2023/01/30 04:23:42;;;;;;;0.60;0.60;;;5.50;99.90;;;;;;5057102;28;20469;-89
2023/01/30 04:26:08;;;;;;;0.08;0.08;;;5.40;99.90;;;;;;5057498;28;20543;-89
2023/01/30 04:28:34;;;;;;;0.00;0.00;;;5.30;99.90;;;;;;5057279;28;20044;-89
2023/01/30 04:31:00;;;;;;;0.20;0.20;;;5.20;99.90;;;;;;5057477;28;20041;-88
2023/01/30 04:33:25;;;;;;;0.05;0.05;;;5.30;99.90;;;;;;5055727;28;20076;-88
2023/01/30 04:35:56;;;;;;;0.52;0.52;;;5.20;99.90;;;;;;5057398;28;20033;-88
2023/01/30 04:38:23;;;;;;;0.05;0.05;;;5.30;99.90;;;;;;5056946;28;20041;-88
2023/01/30 04:40:49;;;;;;;1.67;0.88;;;5.40;99.90;;;;;;5057503;28;20041;-88
2023/01/30 04:43:15;;;;;;;0.00;0.00;;;5.40;99.90;;;;;;5056795;28;20504;-88
2023/01/30 04:45:45;;;;;;;1.13;1.08;;;5.40;99.90;;;;;;5056334;28;20041;-88
2023/01/30 04:48:11;;;;;;;6.45;1.38;;;5.40;99.90;;;;;;5054738;28;20457;-88
2023/01/30 04:50:37;;;;;;;1.65;0.45;;;5.30;99.90;;;;;;5056532;28;20085;-88
2023/01/30 04:53:03;;;;;;;0.55;0.55;;;5.30;99.90;;;;;;5055103;28;20376;-88
2023/01/30 04:55:29;;;;;;;0.00;0.00;;;5.20;99.90;;;;;;5056280;28;20051;-88
2023/01/30 04:57:54;;;;;;;0.00;0.00;;;5.30;99.90;;;;;;5056451;28;20033;-88
2023/01/30 05:00:20;;;;;;;0.60;0.60;;;5.20;99.90;;;;;;5056909;28;20471;-89
2023/01/30 05:02:45;;;;;;;0.30;0.30;;;5.10;99.90;;;;;;5055917;28;20045;-89
2023/01/30 05:05:11;;;;;;;3.20;1.65;;;5.00;99.90;;;;;;5056233;28;20068;-89
2023/01/30 05:07:37;;;;;;;0.20;0.15;;;4.90;99.90;;;;;;5054661;28;20086;-89
2023/01/30 05:10:03;;;;;;;0.15;0.15;;;4.80;1.00;;;;;;5054937;28;20053;-88
2023/01/30 05:12:29;;;;;;;0.00;0.00;;;4.90;1.00;;;;;;5054756;28;20141;-88
2023/01/30 05:14:55;;;;;;;3.75;2.22;;;4.80;26.20;;;;;;5056042;28;20051;-88
2023/01/30 05:17:20;;;;;;;0.00;0.00;;;4.70;99.90;;;;;;5055871;28;20491;-89
2023/01/30 05:19:46;;;;;;;0.25;0.25;;;4.70;80.00;;;;;;5055716;28;20130;-88
2023/01/30 05:22:11;;;;;;;0.00;0.00;;;4.70;99.90;;;;;;5055765;28;20037;-88
2023/01/30 05:24:37;;;;;;;4.28;1.55;;;4.60;99.90;;;;;;5054871;28;20049;-89
2023/01/30 05:27:03;;;;;;;0.00;0.00;;;4.60;99.90;;;;;;5055067;28;20076;-88
2023/01/30 05:29:29;;;;;;;5.55;1.58;;;4.60;99.90;;;;;;5055939;28;20037;-89
2023/01/30 05:31:55;;;;;;;1.38;0.43;;;4.60;99.90;;;;;;5055832;28;20041;-89
2023/01/30 05:34:20;;;;;;;0.75;0.75;;;4.60;99.90;;;;;;5054796;28;20052;-89
2023/01/30 05:36:46;;;;;;;0.80;0.47;;;4.60;99.90;;;;;;5055408;28;20037;-89
2023/01/30 05:39:12;;;;;;;0.00;0.00;;;4.70;99.90;;;;;;5056271;28;20072;-88
2023/01/30 05:41:37;;;;;;;0.00;0.00;;;4.50;99.90;;;;;;5054239;28;20040;-88
2023/01/30 05:44:03;;;;;;;0.10;0.10;;;4.40;99.90;;;;;;5055379;28;20041;-88
2023/01/30 05:46:29;;;;;;;0.88;0.80;;;4.50;99.90;;;;;;5055661;28;20040;-89
2023/01/30 05:48:54;;;;;;;4.68;1.08;;;4.50;99.90;;;;;;5055060;28;20109;-88
2023/01/30 05:51:23;;;;;;;0.10;0.10;;;5.70;99.90;;;;;;5054980;28;20051;-88
2023/01/30 05:53:49;;;;;;;1.10;0.52;;;4.50;99.90;;;;;;5053692;28;20059;-88
2023/01/30 05:56:15;;;;;;;26.73;2.40;;;4.50;99.90;;;;;;5053441;28;20045;-89
2023/01/30 05:58:42;;;;;;;12.63;1.55;;;4.40;99.90;;;;;;5052198;28;20067;-88
2023/01/30 06:01:11;;;;;;;0.13;0.13;;;4.30;99.90;;;;;;5052424;28;20045;-89
2023/01/30 06:03:37;;;;;;;0.20;0.20;;;4.40;99.90;;;;;;5053536;28;20495;-89
2023/01/30 06:06:04;;;;;;;0.63;0.63;;;4.60;99.90;;;;;;5054009;28;20048;-88
2023/01/30 06:08:31;;;;;;;0.00;0.00;;;4.60;99.90;;;;;;5053545;28;20082;-88
2023/01/30 06:11:04;;;;;;;0.22;0.22;;;4.60;99.90;;;;;;5053874;28;20052;-88
2023/01/30 06:13:29;;;;;;;3.63;1.65;;;4.60;99.90;;;;;;5052990;28;20423;-88
2023/01/30 06:15:55;;;;;;;1.92;0.85;;;4.70;99.90;;;;;;5049936;28;20041;-88
2023/01/30 06:18:21;;;;;;;0.47;0.47;;;4.70;99.90;;;;;;5051067;28;20080;-88
2023/01/30 06:20:48;;;;;;;6.45;1.00;;;4.90;99.90;;;;;;5051364;28;20071;-88
2023/01/30 06:23:14;;;;;;;1.65;1.55;;;5.00;99.90;;;;;;5050935;28;20052;-88
2023/01/30 06:25:47;;;;;;;21.20;1.85;;;5.10;99.90;;;;;;5050628;28;20127;-88
2023/01/30 06:28:14;;;;;;;0.35;0.35;;;5.20;99.90;;;;;;5050956;28;20045;-89
2023/01/30 06:30:40;;;;;;;0.00;0.00;;;5.30;1.00;;;;;;5044382;28;20398;-89
2023/01/30 06:33:07;;;;;;;0.55;0.55;;;5.20;90.30;;;;;;5049971;28;20053;-89
2023/01/30 06:35:33;;;;;;;0.30;0.30;;;5.20;78.30;;;;;;5051129;28;20152;-89
2023/01/30 06:37:59;;;;;;;0.00;0.00;;;5.30;99.90;;;;;;5051108;28;20075;-89
2023/01/30 06:40:25;;;;;;;1.10;1.00;;;5.30;99.90;;;;;;5050461;28;20045;-89
2023/01/30 06:42:50;;;;;;;40.95;1.55;;;5.20;1.00;;;;;;5050007;28;20549;-88
2023/01/30 06:45:18;;;;;;;0.20;0.20;;;5.20;99.90;;;;;;5050679;28;20142;-88
2023/01/30 06:47:52;;;;;;;0.43;0.43;;;5.10;99.90;;;;;;5053323;28;20045;-88
2023/01/30 06:50:20;;;;;;;3.72;1.75;;;5.10;39.80;;;;;;5053887;28;20045;-88
2023/01/30 06:52:47;;;;;;;0.70;0.70;;;5.20;1.00;;;;;;5053965;28;20045;-88
2023/01/30 06:55:18;;;;;;;0.08;0.08;;;5.20;99.90;;;;;;5053643;28;20123;-89
2023/01/30 06:57:44;;;;;;;0.15;0.15;;;5.20;1.00;;;;;;5055480;28;20048;-88
2023/01/30 07:00:17;;;;;;;1.02;0.65;;;5.30;99.90;;;;;;5053840;28;20449;-88
2023/01/30 07:02:42;;;;;;;27.63;1.55;;;5.40;1.00;;;;;;5070084;28;20045;-88
2023/01/30 07:05:09;;;;;;;0.08;0.08;;;5.50;99.90;;;;;;5055217;28;20379;-88
2023/01/30 07:07:35;;;;;;;0.45;0.45;;;5.50;1.00;;;;;;5054528;28;20037;-89
2023/01/30 07:10:02;;;;;;;0.90;0.28;;;5.60;99.90;;;;;;5070104;28;20483;-88
2023/01/30 07:12:27;;;;;;;0.00;0.00;;;5.60;99.90;;;;;;5054363;28;20067;-88
2023/01/30 07:14:53;;;;;;;18.73;1.45;;;5.70;1.00;;;;;;5039444;28;20037;-89
2023/01/30 07:17:19;;;;;;;0.30;0.25;;;5.70;99.90;;;;;;5069722;28;20041;-89
2023/01/30 07:19:45;;;;;;;1.35;1.25;;;5.80;99.90;;;;;;5054596;28;20445;-88
2023/01/30 07:22:11;;;;;;;1.20;0.47;;;5.70;1.00;;;;;;5054389;28;20284;-88
2023/01/30 07:24:38;;;;;;;0.75;0.75;;;5.80;99.90;;;;;;5054230;28;20040;-89
2023/01/30 07:27:07;;;;;;;0.00;0.00;;;5.80;99.90;;;;;;5054177;28;20418;-89
2023/01/30 07:29:34;;;;;;;2.13;1.00;;;5.80;99.90;;;;;;5054511;28;20087;-88
2023/01/30 07:32:00;;;;;;;0.00;0.00;;;5.80;99.90;;;;;;5071209;28;20101;-88
2023/01/30 07:34:25;;;;;;;5.93;1.40;;;6.00;99.90;;;;;;5056016;28;20439;-88
2023/01/30 07:36:51;;;;;;;0.52;0.52;;;6.00;99.90;;;;;;5071394;28;20064;-88
2023/01/30 07:39:17;;;;;;;0.22;0.22;;;6.10;99.90;;;;;;5055766;28;20037;-88
2023/01/30 07:41:42;;;;;;;3.30;1.83;;;6.10;53.20;;;;;;5055827;28;20042;-88
2023/01/30 07:44:08;;;;;;;4.78;1.55;;;6.10;1.00;;;;;;5055948;28;20048;-89
2023/01/30 07:46:33;;;;;;;8.02;1.67;;;6.20;55.50;;;;;;5055797;28;20047;-89
2023/01/30 07:49:04;;;;;;;0.08;0.08;;;6.10;99.90;;;;;;5055263;28;20041;-88
2023/01/30 07:51:30;;;;;;;1.73;1.30;;;6.10;99.90;;;;;;5055728;28;20045;-88
2023/01/30 07:53:55;;;;;;;0.28;0.28;;;6.20;92.10;;;;;;5055475;28;20102;-88
2023/01/30 07:56:21;;;;;;;2.20;1.65;;;6.20;1.00;;;;;;5069587;28;20049;-88
2023/01/30 07:58:47;;;;;;;2.38;2.20;;;6.20;69.80;;;;;;5055293;28;20398;-88
2023/01/30 08:01:13;;;;;;;1.38;1.20;;;6.20;99.90;;;;;;5071138;28;20037;-88
2023/01/30 08:03:39;;;;;;;0.75;0.75;;;6.30;99.90;;;;;;5055135;28;20041;-88
2023/01/30 08:06:05;;;;;;;3.20;1.30;;;6.30;99.90;;;;;;5055411;28;20041;-88
2023/01/30 08:08:31;;;;;;;0.25;0.25;;;6.30;1.00;;;;;;5053617;28;20502;-88
2023/01/30 08:10:56;;;;;;;0.00;0.00;;;6.30;99.90;;;;;;5055351;28;20041;-88
2023/01/30 08:13:22;;;;;;;0.00;0.00;;;6.40;99.90;;;;;;5055111;28;20053;-88
2023/01/30 08:15:47;;;;;;;6.53;2.88;;;6.30;99.90;;;;;;5055080;28;20045;-88
2023/01/30 08:18:13;;;;;;;0.05;0.05;;;6.30;99.90;;;;;;5070435;28;20488;-88
2023/01/30 08:20:39;;;;;;;0.47;0.45;;;6.40;7.10;;;;;;5053768;28;20068;-88
2023/01/30 08:23:05;;;;;;;20.95;2.80;;;6.50;99.90;;;;;;5055420;28;20045;-88
2023/01/30 08:25:30;;;;;;;0.20;0.20;;;6.50;99.90;;;;;;5055016;28;20080;-88
2023/01/30 08:27:59;;;;;;;0.95;0.95;;;6.50;1.00;;;;;;5055144;28;20073;-88
2023/01/30 08:30:24;;;;;;;0.10;0.10;;;6.50;1.00;;;;;;5070303;28;20062;-88
2023/01/30 08:32:50;;;;;;;9.13;0.85;;;6.60;99.90;;;;;;5053453;28;20403;-88
2023/01/30 08:35:16;;;;;;;4.03;1.95;;;6.60;99.90;;;;;;5054537;28;20082;-88
2023/01/30 08:37:42;;;;;;;6.13;1.88;;;6.70;99.90;;;;;;5054539;28;20048;-87
2023/01/30 08:40:09;;;;;;;0.00;0.00;;;6.70;99.90;;;;;;5054427;28;20040;-88
2023/01/30 08:42:34;;;;;;;0.40;0.40;;;6.70;99.90;;;;;;5070302;28;20060;-88
2023/01/30 08:45:00;;;;;;;0.00;0.00;;;6.60;1.00;;;;;;5054525;28;20044;-88
2023/01/30 08:47:26;;;;;;;0.13;0.13;;;6.70;1.00;;;;;;5054202;28;20509;-87
2023/01/30 08:49:51;;;;;;;1.02;0.93;;;6.70;1.00;;;;;;5053090;28;20052;-87
2023/01/30 08:52:18;;;;;;;1.23;0.80;;;6.70;99.90;;;;;;5053091;28;20077;-87
2023/01/30 08:54:44;;;;;;;3.38;0.60;;;6.70;93.70;;;;;;5054134;28;20503;-87
2023/01/30 08:57:10;;;;;;;13.10;3.47;;;6.80;1.00;;;;;;5053002;28;20045;-88
2023/01/30 08:59:35;;;;;;;0.00;0.00;;;6.80;9.40;;;;;;5054537;28;20033;-87
2023/01/30 09:02:01;;;;;;;8.38;1.20;;;6.90;1.00;;;;;;5054013;28;20102;-87
2023/01/30 09:04:29;;;;;;;0.00;0.00;;;6.90;1.00;;;;;;5052766;28;20080;-87
2023/01/30 09:06:54;;;;;;;0.43;0.43;;;6.80;1.00;;;;;;5053839;28;20037;-87
2023/01/30 09:09:20;;;;;;;0.00;0.00;;;7.00;99.90;;;;;;5052599;28;20174;-87
2023/01/30 09:11:47;;;;;;;0.13;0.13;;;7.20;99.90;;;;;;5054255;28;20486;-88
2023/01/30 09:14:15;;;;;;;2.88;0.90;;;7.20;1.00;;;;;;5052586;28;20053;-87
2023/01/30 09:16:40;;;;;;;0.03;0.03;;;7.20;1.00;;;;;;5054026;28;20126;-87
2023/01/30 09:19:06;;;;;;;0.40;0.40;;;7.40;99.90;;;;;;5053908;28;20517;-87
2023/01/30 09:21:32;;;;;;;17.35;2.40;;;7.40;1.50;;;;;;5052581;28;20066;-87
2023/01/30 09:23:57;;;;;;;1.20;1.02;;;7.50;1.00;;;;;;5054188;28;20048;-88
2023/01/30 09:26:23;;;;;;;0.43;0.43;;;7.50;1.00;;;;;;5053949;28;20083;-87
2023/01/30 09:28:49;;;;;;;0.22;0.22;;;7.50;99.90;;;;;;5052501;28;20049;-87
2023/01/30 09:31:14;;;;;;;0.68;0.68;;;7.40;1.00;;;;;;5069244;28;20049;-87
2023/01/30 09:33:40;;;;;;;0.90;0.90;;;7.40;99.90;;;;;;5053494;28;20494;-87
2023/01/30 09:36:06;;;;;;;1.27;1.00;;;7.40;99.90;;;;;;5053665;28;20132;-87
2023/01/30 09:38:31;;;;;;;3.42;1.20;;;7.40;99.90;;;;;;5053885;28;20075;-87
2023/01/30 09:41:14;;;;;;;0.63;0.47;;;7.50;99.90;;;;;;5053913;28;20467;-87
2023/01/30 09:43:56;;;;;;;0.17;0.17;;;8.20;99.90;;;;;;5053652;28;20041;-87
2023/01/30 09:46:38;;;;;;;0.28;0.28;;;7.50;1.00;;;;;;5053591;28;20049;-87
2023/01/30 09:49:49;;;;;;;0.82;0.75;;;7.20;99.90;;;;;;5053131;28;20059;-87
2023/01/30 09:52:53;;;;;;;0.73;0.70;;;7.00;99.90;;;;;;5051879;28;20057;-88
2023/01/30 09:55:23;;;;;;;0.32;0.32;;;6.70;99.90;;;;;;5053074;28;20053;-87
2023/01/30 09:57:50;;;;;;;0.00;0.00;;;6.50;1.00;;;;;;5053741;28;20460;-88
2023/01/30 10:00:33;;;;;;;1.52;0.98;;;6.20;99.90;;;;;;5052433;28;20040;-87
2023/01/30 10:03:12;;;;;;;0.45;0.45;;;5.90;1.00;;;;;;5052898;28;20041;-87
2023/01/30 10:05:51;;;;;;;0.00;0.00;;;5.90;1.00;;;;;;5053450;28;20044;-87
2023/01/30 10:08:44;;;;;;;0.25;0.25;;;5.90;96.40;;;;;;5052837;28;20075;-87
2023/01/30 10:11:29;;;;;;;0.35;0.35;;;6.00;1.00;;;;;;5052998;28;20053;-87
2023/01/30 10:13:57;;;;;;;0.25;0.15;;;6.10;4.90;;;;;;5052720;28;20041;-87
2023/01/30 10:16:49;;;;;;;0.10;0.10;;;6.20;1.00;;;;;;5052895;28;20487;-87
2023/01/30 10:19:42;;;;;;;0.63;0.55;;;6.30;5.40;;;;;;5052325;28;20103;-87
2023/01/30 10:22:23;;;;;;;0.47;0.20;;;6.30;10.60;;;;;;5052947;28;20079;-87
2023/01/30 10:24:56;;;;;;;1.00;0.70;;;6.40;15.20;;;;;;5053391;28;20170;-87
2023/01/30 10:27:24;;;;;;;0.38;0.32;;;6.50;1.00;;;;;;5053090;28;20056;-87
2023/01/30 10:29:55;;;;;;;1.38;0.68;;;6.70;59.60;;;;;;5053046;28;20091;-87
2023/01/30 10:32:27;;;;;;;0.00;0.00;;;7.00;99.90;;;;;;5052682;28;20103;-87
2023/01/30 10:34:58;;;;;;;0.00;0.00;;;7.30;99.90;;;;;;5052559;28;20148;-87
2023/01/30 10:37:31;;;;;;;17.13;1.75;;;7.20;99.90;;;;;;5051458;28;20053;-87
2023/01/30 10:39:56;;;;;;;0.60;0.55;;;6.80;1.00;;;;;;5051742;28;20052;-87
2023/01/30 10:42:37;;;;;;;2.13;0.95;;;6.40;1.00;;;;;;5052800;28;20095;-87
2023/01/30 10:45:15;;;;;;;0.00;0.00;;;6.10;86.40;;;;;;5052658;28;20053;-87
2023/01/30 10:48:28;;;;;;;0.20;0.20;;;5.50;99.90;;;;;;5067865;28;20061;-86
2023/01/30 10:51:02;;;;;;;0.00;0.00;;;5.10;99.90;;;;;;5043142;28;20461;-87
2023/01/30 10:53:33;;;;;;;0.00;0.00;;;4.80;99.90;;;;;;5051116;28;20045;-87
2023/01/30 10:56:19;;;;;;;0.57;0.57;;;4.60;99.90;;;;;;5051364;28;20053;-87
2023/01/30 10:58:53;;;;;;;0.28;0.28;;;4.60;99.90;;;;;;5052542;28;20124;-87
2023/01/30 11:01:27;;;;;;;0.00;0.00;;;4.80;99.90;;;;;;5052642;28;20071;-87
2023/01/30 11:03:59;;;;;;;0.73;0.73;;;4.70;99.90;;;;;;5052331;28;20049;-86
2023/01/30 11:06:25;;;;;;;0.00;0.00;;;5.00;99.90;;;;;;5068691;28;20068;-87
2023/01/30 11:08:52;;;;;;;1.65;1.02;;;5.10;99.90;;;;;;5052558;28;20041;-86
2023/01/30 11:11:46;;;;;;;0.52;0.52;;;5.20;99.90;;;;;;5052662;28;20049;-87
2023/01/30 11:14:13;;;;;;;1.55;0.98;;;5.30;99.90;;;;;;5052583;28;20159;-87
2023/01/30 11:16:50;;;;;;;0.57;0.47;;;5.40;99.90;;;;;;5052212;28;20037;-87
2023/01/30 11:19:18;;;;;;;0.10;0.10;;;5.60;99.90;;;;;;5052478;28;20049;-86
2023/01/30 11:21:53;;;;;;;0.00;0.00;;;5.70;99.90;;;;;;5052206;28;20037;-86
2023/01/30 11:24:23;;;;;;;0.13;0.10;;;5.90;99.90;;;;;;5052276;28;20380;-87
2023/01/30 11:26:49;;;;;;;0.73;0.73;;;6.00;1.00;;;;;;5052156;28;20044;-87
2023/01/30 11:29:27;;;;;;;0.73;0.43;;;6.20;99.90;;;;;;5050702;28;20068;-86
2023/01/30 11:31:54;;;;;;;3.92;2.13;;;6.30;99.90;;;;;;5054885;28;20048;-87
2023/01/30 11:34:21;;;;;;;0.00;0.00;;;6.70;1.00;;;;;;5055810;28;20037;-86
2023/01/30 11:36:48;;;;;;;0.28;0.28;;;6.90;63.90;;;;;;5055775;28;20437;-86
2023/01/30 11:39:17;;;;;;;0.63;0.63;;;6.90;1.00;;;;;;5054844;28;20041;-86
2023/01/30 11:42:08;;;;;;;0.52;0.50;;;7.00;1.00;;;;;;5055974;28;20060;-87
2023/01/30 11:44:36;;;;;;;0.00;0.00;;;7.10;12.70;;;;;;5054989;28;20528;-87
2023/01/30 11:47:23;;;;;;;2.92;1.38;;;7.10;1.00;;;;;;5055352;28;20099;-86
2023/01/30 11:49:51;;;;;;;1.63;0.90;;;7.10;1.00;;;;;;5056052;28;20364;-86
2023/01/30 11:52:25;;;;;;;0.70;0.40;;;7.20;54.60;;;;;;5055961;28;20461;-87
2023/01/30 11:54:52;;;;;;;0.43;0.32;;;7.40;99.90;;;;;;5055522;28;20090;-87
2023/01/30 11:57:19;;;;;;;1.23;0.57;;;7.50;99.90;;;;;;5054145;28;20505;-87
2023/01/30 11:59:58;;;;;;;0.25;0.25;;;7.60;99.90;;;;;;5055496;28;20119;-87
2023/01/30 12:02:37;;;;;;;0.30;0.20;;;7.60;99.90;;;;;;5055203;28;20405;-87
2023/01/30 12:05:09;;;;;;;0.00;0.00;;;7.50;1.00;;;;;;5055362;28;20498;-87
2023/01/30 12:07:36;;;;;;;2.75;1.27;;;7.50;1.00;;;;;;5054199;28;20124;-87
2023/01/30 12:10:22;;;;;;;1.85;1.08;;;7.50;1.00;;;;;;5054370;28;20049;-87
2023/01/30 12:12:51;;;;;;;3.50;0.57;;;7.50;1.00;;;;;;5055462;28;20049;-87
2023/01/30 12:15:32;;;;;;;0.05;0.05;;;7.50;1.00;;;;;;5054215;28;20041;-86
2023/01/30 12:18:18;;;;;;;0.30;0.30;;;7.50;24.60;;;;;;5053649;28;20498;-87
2023/01/30 12:21:20;;;;;;;0.00;0.00;;;7.50;20.70;;;;;;5055063;28;20052;-87
2023/01/30 12:23:49;;;;;;;0.63;0.63;;;7.40;1.00;;;;;;5053739;28;20048;-87
2023/01/30 12:26:38;;;;;;;0.05;0.05;;;7.20;1.00;;;;;;5054771;28;20045;-87
2023/01/30 12:29:30;;;;;;;1.52;0.82;;;7.30;69.90;;;;;;5055048;28;20120;-88
2023/01/30 12:32:18;;;;;;;33.53;1.25;;;7.70;27.40;;;;;;5055693;28;20045;-88
2023/01/30 12:34:45;;;;;;;0.73;0.52;;;8.00;1.00;;;;;;5056080;28;20033;-87
2023/01/30 12:37:44;;;;;;;3.42;1.83;;;8.10;1.00;;;;;;5056194;28;20403;-87
2023/01/30 12:40:28;;;;;;;0.70;0.52;;;8.20;1.00;;;;;;5071370;28;20053;-87
2023/01/30 12:43:22;;;;;;;1.65;1.55;;;8.30;17.20;;;;;;5055566;28;20136;-87
2023/01/30 12:46:09;;;;;;;1.60;0.70;;;8.30;1.00;;;;;;5050288;28;20139;-87
2023/01/30 12:48:49;;;;;;;2.22;1.50;;;8.40;1.00;;;;;;5056086;28;20049;-87
2023/01/30 12:51:48;;;;;;;0.50;0.35;;;8.50;1.00;;;;;;5055004;28;20053;-87
2023/01/30 12:54:32;;;;;;;3.85;1.88;;;8.50;1.00;;;;;;5071805;28;20037;-87
2023/01/30 12:57:14;;;;;;;0.25;0.25;;;8.50;1.00;;;;;;5055805;28;20449;-88
2023/01/30 12:59:49;;;;;;;0.10;0.10;;;8.50;1.00;;;;;;5054940;28;20083;-87
2023/01/30 13:02:24;;;;;;;0.00;0.00;;;8.50;1.00;;;;;;5056094;28;20140;-87
2023/01/30 13:05:27;;;;;;;1.92;1.20;;;8.60;1.00;;;;;;5055574;28;20120;-87
2023/01/30 13:08:26;;;;;;;0.10;0.10;;;8.50;1.00;;;;;;5054233;28;20056;-87
2023/01/30 13:11:28;;;;;;;0.30;0.28;;;8.40;1.00;;;;;;5055870;28;20071;-87
2023/01/30 13:14:13;;;;;;;0.00;0.00;;;8.40;1.00;;;;;;5055650;28;20045;-88
2023/01/30 13:16:54;;;;;;;0.00;0.00;;;8.40;1.00;;;;;;5055971;28;20045;-86
2023/01/30 13:19:32;;;;;;;2.53;2.17;;;8.50;1.00;;;;;;5056436;28;20055;-87
2023/01/30 13:22:19;;;;;;;0.00;0.00;;;8.30;1.00;;;;;;5055205;28;20049;-87
2023/01/30 13:25:17;;;;;;;2.08;1.25;;;8.20;1.00;;;;;;5055492;28;20052;-87